Time;durP1;ratioP1;P1;durP2;ratioP2;P2;SDS_P1;SDS_P2;PMS_P1;PMS_P2;Temp;Humidity;BMP_temperature;BMP_pressure;BME280_temperature;BME280_humidity;BME280_pressure;Samples;Min_cycle;Max_cycle;Signal;HPM_P1;HPM_P2
2022/06/22 00:00:01;;;;;;;0.70;0.70;;;15.50;99.90;16.00;101207.00;;;;5098318;28;20177;-63
2022/06/22 00:02:36;;;;;;;0.60;0.60;;;15.40;99.90;16.10;101200.00;;;;5081618;28;20184;-63
2022/06/22 00:05:08;;;;;;;0.70;0.70;;;15.50;99.90;16.00;101152.00;;;;5097923;28;20541;-63
2022/06/22 00:07:38;;;;;;;0.70;0.70;;;15.40;99.90;15.90;101187.00;;;;5098334;28;20185;-63
2022/06/22 00:10:07;;;;;;;0.70;0.70;;;15.30;99.90;15.60;101184.00;;;;5098107;28;20181;-63
2022/06/22 00:12:33;;;;;;;0.67;0.67;;;15.10;99.90;16.20;101168.00;;;;5114912;28;20199;-63
2022/06/22 00:15:02;;;;;;;0.67;0.67;;;15.40;99.90;16.00;101172.00;;;;5097977;28;20190;-63
2022/06/22 00:17:39;;;;;;;0.60;0.60;;;15.50;99.90;15.80;101169.00;;;;5097818;28;20185;-65
2022/06/22 00:20:21;;;;;;;0.70;0.70;;;15.30;99.90;16.20;101168.00;;;;5097758;28;20185;-63
2022/06/22 00:23:00;;;;;;;0.90;0.90;;;15.60;99.90;16.50;101173.00;;;;5097447;28;20175;-65
2022/06/22 00:25:32;;;;;;;0.80;0.80;;;15.80;99.90;16.20;101167.00;;;;5094247;28;20215;-63
2022/06/22 00:28:31;;;;;;;0.77;0.77;;;15.70;99.90;16.00;101180.00;;;;5099721;28;20642;-62
2022/06/22 00:31:23;;;;;;;0.67;0.67;;;15.50;99.90;15.10;101152.00;;;;5097464;28;20560;-62
2022/06/22 00:34:22;;;;;;;0.80;0.80;;;15.30;99.90;15.10;101176.00;;;;5095994;28;20527;-63
2022/06/22 00:37:06;;;;;;;0.70;0.70;;;15.00;99.90;15.60;101187.00;;;;5096936;28;20181;-63
2022/06/22 00:39:37;;;;;;;0.80;0.80;;;15.00;99.90;15.60;101187.00;;;;5080619;28;20247;-63
2022/06/22 00:42:14;;;;;;;0.80;0.80;;;15.20;99.90;15.80;101192.00;;;;5080315;28;20246;-64
2022/06/22 00:45:08;;;;;;;0.70;0.70;;;15.20;99.90;15.50;101194.00;;;;5115443;28;20647;-63
2022/06/22 00:48:20;;;;;;;0.70;0.70;;;15.00;99.90;15.10;101180.00;;;;5078873;28;20189;-63
2022/06/22 00:50:56;;;;;;;0.70;0.70;;;14.90;99.90;14.60;101180.00;;;;5091045;28;20652;-63
2022/06/22 00:53:32;;;;;;;0.63;0.63;;;14.60;99.90;14.50;101177.00;;;;5076267;28;20191;-62
2022/06/22 00:56:14;;;;;;;0.70;0.70;;;14.50;99.90;15.00;101176.00;;;;5076116;28;20174;-62
2022/06/22 00:58:55;;;;;;;3.20;3.10;;;14.60;99.90;15.20;101177.00;;;;5094352;28;20210;-63
2022/06/22 01:01:53;;;;;;;0.60;0.60;;;14.80;99.90;15.40;101178.00;;;;5094879;28;20643;-62
2022/06/22 01:04:38;;;;;;;1.07;1.07;;;15.00;99.90;15.70;101171.00;;;;5073489;28;20256;-62
2022/06/22 01:07:27;;;;;;;1.57;1.50;;;15.20;99.90;16.20;101171.00;;;;5075735;28;20188;-62
2022/06/22 01:10:26;;;;;;;0.70;0.70;;;15.50;99.90;15.90;101127.00;;;;5076438;28;20218;-62
2022/06/22 01:13:07;;;;;;;0.60;0.60;;;15.40;99.90;15.60;101164.00;;;;5075584;28;20703;-63
2022/06/22 01:15:52;;;;;;;0.60;0.60;;;15.30;99.90;15.30;101168.00;;;;5094557;28;20231;-63
2022/06/22 01:18:48;;;;;;;0.70;0.70;;;15.10;99.90;15.40;101176.00;;;;5076344;28;20278;-62
2022/06/22 01:21:28;;;;;;;0.70;0.70;;;14.90;99.90;15.50;101166.00;;;;5057110;28;20203;-62
2022/06/22 01:24:31;;;;;;;0.70;0.70;;;15.00;99.90;15.10;101172.00;;;;5075260;28;20175;-63
2022/06/22 01:27:19;;;;;;;0.70;0.70;;;14.70;99.90;15.20;101180.00;;;;5076246;28;20203;-63
2022/06/22 01:29:55;;;;;;;0.70;0.70;;;14.70;99.90;15.20;101182.00;;;;5098375;28;20702;-63
2022/06/22 01:32:32;;;;;;;0.93;0.93;;;14.70;99.90;15.70;101169.00;;;;5096551;28;20197;-63
2022/06/22 01:35:02;;;;;;;0.80;0.80;;;14.90;99.90;15.80;101173.00;;;;5096376;28;20178;-63
2022/06/22 01:37:32;;;;;;;0.90;0.90;;;15.10;99.90;16.10;101149.00;;;;5095286;28;20261;-63
2022/06/22 01:40:16;;;;;;;0.80;0.80;;;15.30;99.90;16.10;101172.00;;;;5096613;28;20255;-63
2022/06/22 01:43:30;;;;;;;0.70;0.70;;;15.40;99.90;15.60;101172.00;;;;5096125;28;20206;-63
2022/06/22 01:46:38;;;;;;;0.70;0.70;;;15.20;99.90;15.40;101173.00;;;;5031607;28;20211;-63
2022/06/22 01:50:04;;;;;;;0.70;0.70;;;15.10;99.90;14.60;101172.00;;;;4989748;28;21216;-63
2022/06/22 01:52:54;;;;;;;0.63;0.63;;;14.70;99.90;15.20;101167.00;;;;5095969;28;20224;-63
2022/06/22 01:56:02;;;;;;;0.60;0.60;;;14.70;99.90;15.20;101178.00;;;;5113837;28;20169;-63
2022/06/22 01:58:48;;;;;;;0.60;0.60;;;14.70;99.90;15.50;101167.00;;;;5049387;28;20548;-63
2022/06/22 02:01:25;;;;;;;0.60;0.60;;;14.90;99.90;15.40;101159.00;;;;5114258;28;20210;-63
2022/06/22 02:04:33;;;;;;;0.70;0.70;;;14.80;99.90;14.40;101150.00;;;;5113574;28;20220;-63
2022/06/22 02:07:45;;;;;;;0.60;0.60;;;14.60;99.90;14.70;101146.00;;;;5112837;28;20200;-63
2022/06/22 02:10:33;;;;;;;0.60;0.60;;;14.30;99.90;14.90;101144.00;;;;5097518;28;20267;-62
2022/06/22 02:13:36;;;;;;;0.70;0.70;;;14.40;99.90;14.50;101140.00;;;;5113682;28;20212;-63
2022/06/22 02:16:27;;;;;;;0.70;0.70;;;14.30;99.90;14.50;101149.00;;;;5096090;28;20197;-62
2022/06/22 02:18:59;;;;;;;0.70;0.70;;;14.10;99.90;14.70;101153.00;;;;5095241;28;20630;-62
2022/06/22 02:21:53;;;;;;;0.70;0.70;;;14.10;99.90;14.60;101135.00;;;;5114179;28;20196;-62
2022/06/22 02:24:32;;;;;;;0.70;0.70;;;14.10;99.90;14.40;101146.00;;;;5094988;28;20645;-63
2022/06/22 02:27:13;;;;;;;0.70;0.70;;;14.00;99.90;14.60;101147.00;;;;5096167;28;20728;-62
2022/06/22 02:29:46;;;;;;;0.60;0.60;;;14.30;99.90;14.40;101137.00;;;;5095779;28;20303;-62
2022/06/22 02:32:28;;;;;;;0.60;0.60;;;14.20;99.90;14.20;101129.00;;;;5095387;28;20695;-62
2022/06/22 02:34:56;;;;;;;0.60;0.60;;;14.10;99.90;14.50;101118.00;;;;5094527;28;20203;-62
2022/06/22 02:37:28;;;;;;;0.60;0.60;;;14.10;99.90;14.90;101145.00;;;;5095839;28;20192;-62
2022/06/22 02:40:03;;;;;;;1.10;1.10;;;14.30;99.90;14.80;101130.00;;;;5095017;28;20227;-62
2022/06/22 02:45:18;;;;;;;0.70;0.70;;;14.50;99.90;15.10;101127.00;;;;5112737;28;20195;-62
2022/06/22 02:47:53;;;;;;;0.70;0.70;;;14.50;99.90;14.50;101116.00;;;;5095751;28;20177;-62
2022/06/22 02:50:56;;;;;;;0.60;0.60;;;14.40;99.90;14.40;101122.00;;;;5113370;28;20184;-62
2022/06/22 02:53:43;;;;;;;0.70;0.70;;;14.10;99.90;14.50;101121.00;;;;5069166;28;20744;-62
2022/06/22 02:56:19;;;;;;;0.70;0.70;;;14.00;99.90;14.20;101120.00;;;;5094948;28;20212;-62
2022/06/22 02:58:45;;;;;;;1.73;1.63;;;13.90;99.90;15.00;101090.00;;;;5094876;28;20160;-63
2022/06/22 03:01:20;;;;;;;0.70;0.70;;;14.10;99.90;14.90;101105.00;;;;5113386;28;20181;-62
2022/06/22 03:04:10;;;;;;;0.93;0.93;;;14.40;99.90;14.90;101066.00;;;;5112454;28;20172;-62
2022/06/22 03:06:41;;;;;;;0.70;0.70;;;14.40;99.90;15.20;101118.00;;;;5095129;28;20185;-62
2022/06/22 03:09:08;;;;;;;0.70;0.70;;;14.50;99.90;14.90;101114.00;;;;5095139;28;20212;-62
2022/06/22 03:11:43;;;;;;;0.70;0.70;;;14.50;99.90;14.90;101113.00;;;;5078363;28;20205;-62
2022/06/22 03:14:31;;;;;;;0.60;0.60;;;14.50;99.90;15.00;101099.00;;;;5095523;28;20209;-62
2022/06/22 03:17:01;;;;;;;0.70;0.70;;;14.50;99.90;15.20;101111.00;;;;5094467;28;20183;-62
2022/06/22 03:19:47;;;;;;;0.70;0.70;;;14.50;99.90;14.90;101117.00;;;;5116089;28;20181;-62
2022/06/22 03:22:23;;;;;;;0.80;0.80;;;14.40;99.90;14.40;101115.00;;;;5116781;28;20262;-62
2022/06/22 03:25:27;;;;;;;0.70;0.70;;;14.30;99.90;14.70;101117.00;;;;5081856;28;20702;-62
2022/06/22 03:28:29;;;;;;;0.70;0.70;;;14.10;99.90;14.70;101110.00;;;;5116858;28;20247;-62
2022/06/22 03:31:04;;;;;;;0.80;0.80;;;14.20;99.90;14.20;101103.00;;;;5098493;28;20611;-62
2022/06/22 03:33:53;;;;;;;0.70;0.70;;;13.90;99.90;13.90;101111.00;;;;5115067;28;20555;-62
2022/06/22 03:36:50;;;;;;;0.60;0.60;;;13.70;99.90;14.00;101112.00;;;;5099008;28;20181;-62
2022/06/22 03:39:24;;;;;;;1.97;1.87;;;13.60;99.90;14.50;101126.00;;;;5098137;28;20180;-62
2022/06/22 03:42:07;;;;;;;0.80;0.80;;;13.70;99.90;14.40;101114.00;;;;5098800;28;20211;-62
2022/06/22 03:45:00;;;;;;;1.00;1.00;;;13.80;99.90;14.20;101068.00;;;;5098521;28;20549;-62
2022/06/22 03:47:45;;;;;;;0.80;0.80;;;13.80;99.90;14.70;101108.00;;;;5098595;28;20181;-62
2022/06/22 03:50:23;;;;;;;0.80;0.80;;;13.90;99.90;14.70;101105.00;;;;5098339;28;20172;-62
2022/06/22 03:53:14;;;;;;;0.70;0.70;;;14.00;99.90;14.70;101108.00;;;;5116776;28;20193;-62
2022/06/22 03:55:56;;;;;;;0.70;0.70;;;14.00;99.90;14.70;101105.00;;;;5116085;28;20180;-62
2022/06/22 03:58:30;;;;;;;3.60;3.47;;;14.10;99.90;14.90;101104.00;;;;5098691;28;20162;-62
2022/06/22 04:01:05;;;;;;;0.70;0.70;;;14.20;99.90;14.80;101109.00;;;;5115886;28;20194;-62
2022/06/22 04:03:31;;;;;;;0.70;0.70;;;14.30;99.90;15.00;101102.00;;;;5098447;28;20267;-62
2022/06/22 04:06:00;;;;;;;1.80;1.40;;;14.40;99.90;14.70;101092.00;;;;5114527;28;20267;-62
2022/06/22 04:08:32;;;;;;;1.10;1.10;;;14.40;99.90;14.30;101096.00;;;;5098125;28;20195;-62
2022/06/22 04:11:10;;;;;;;0.70;0.70;;;14.30;99.90;14.10;101069.00;;;;5097772;28;20642;-62
2022/06/22 04:14:02;;;;;;;0.60;0.60;;;14.10;99.90;14.00;101060.00;;;;5116149;28;20660;-62
2022/06/22 04:20:49;;;;;;;0.60;0.60;;;14.50;99.90;15.80;101065.00;;;;5027759;28;20202;-63
2022/06/22 04:23:09;;;;;;;1.73;1.63;;;15.00;99.90;16.00;101089.00;;;;5030457;28;20197;-63
2022/06/22 04:25:38;;;;;;;0.50;0.50;;;15.30;99.90;16.40;101058.00;;;;5017039;28;20189;-63
2022/06/22 04:28:12;;;;;;;0.57;0.57;;;15.60;99.90;17.40;101088.00;;;;5016444;28;20193;-63
2022/06/22 04:31:24;;;;;;;0.50;0.50;;;16.40;99.90;18.40;101082.00;;;;5016368;28;20242;-63
2022/06/22 04:34:22;;;;;;;0.40;0.40;;;17.20;99.90;17.60;101074.00;;;;4987829;28;20752;-63
2022/06/22 04:37:25;;;;;;;0.30;0.30;;;17.70;99.90;18.30;101071.00;;;;5016282;28;20274;-63
2022/06/22 04:40:19;;;;;;;0.30;0.30;;;17.90;99.90;19.80;101083.00;;;;5098716;28;20198;-63
2022/06/22 04:42:46;;;;;;;2.87;1.17;;;18.60;99.90;21.20;101106.00;;;;5097191;28;20645;-63
2022/06/22 04:45:45;;;;;;;0.40;0.40;;;19.80;99.90;22.40;101124.00;;;;5097344;28;20180;-63
2022/06/22 04:48:53;;;;;;;0.65;0.65;;;20.90;99.90;23.30;101163.00;;;;5051605;28;20200;-63
2022/06/22 04:51:33;;;;;;;0.20;0.20;;;21.70;99.90;23.80;101202.00;;;;5081524;28;20203;-63
2022/06/22 04:54:16;;;;;;;0.20;0.20;;;22.50;99.90;24.00;101193.00;;;;5097595;28;20207;-63
2022/06/22 04:56:48;;;;;;;0.20;0.20;;;23.00;99.90;25.00;101222.00;;;;5114980;28;20169;-64
2022/06/22 04:59:16;;;;;;;0.10;0.10;;;23.40;99.90;25.30;101244.00;;;;5096556;28;20267;-64
2022/06/22 05:01:57;;;;;;;0.20;0.20;;;23.90;99.90;25.00;101252.00;;;;5115047;28;20311;-63
2022/06/22 05:05:02;;;;;;;0.10;0.10;;;24.00;99.90;25.10;101220.00;;;;5096372;28;20182;-63
2022/06/22 05:08:14;;;;;;;0.20;0.20;;;24.00;99.90;23.10;101230.00;;;;5063111;28;20267;-63
2022/06/22 05:11:17;;;;;;;0.10;0.10;;;23.30;99.90;23.70;101234.00;;;;5015870;28;20312;-63
2022/06/22 05:14:18;;;;;;;0.20;0.20;;;22.90;99.90;22.50;101215.00;;;;5030261;28;20191;-63
2022/06/22 05:16:54;;;;;;;0.20;0.20;;;22.50;99.90;23.80;101230.00;;;;5015764;28;20194;-63
2022/06/22 05:19:47;;;;;;;0.35;0.35;;;22.50;99.90;24.10;101206.00;;;;5015847;28;20198;-63
2022/06/22 05:22:15;;;;;;;0.38;0.38;;;22.90;99.90;23.70;101243.00;;;;5078076;28;20202;-63
2022/06/22 05:24:53;;;;;;;0.43;0.43;;;23.00;99.90;23.10;101197.00;;;;5096914;28;20177;-63
2022/06/22 05:27:27;;;;;;;0.73;0.32;;;22.70;99.90;25.20;101252.00;;;;5096049;28;20160;-63
2022/06/22 05:30:33;;;;;;;0.15;0.15;;;23.50;99.90;25.00;101236.00;;;;5096351;28;20174;-63
2022/06/22 05:33:14;;;;;;;0.20;0.20;;;23.70;99.90;25.50;101259.00;;;;5085308;28;20322;-63
2022/06/22 05:36:08;;;;;;;0.10;0.10;;;24.00;99.90;24.60;101270.00;;;;5095783;28;20171;-63
2022/06/22 05:38:40;;;;;;;0.52;0.52;;;24.50;99.90;22.00;101238.00;;;;5088394;28;20246;-63
2022/06/22 05:41:08;;;;;;;0.22;0.22;;;23.00;99.90;21.10;101203.00;;;;5078298;28;20184;-63
2022/06/22 05:43:44;;;;;;;0.15;0.15;;;21.80;99.90;24.50;101254.00;;;;5095637;28;20644;-63
2022/06/22 05:46:20;;;;;;;0.10;0.10;;;22.70;99.90;24.30;101265.00;;;;5079437;28;20175;-64
2022/06/22 05:48:49;;;;;;;0.20;0.20;;;23.20;99.90;25.80;101270.00;;;;5096468;28;20229;-63
2022/06/22 05:51:27;;;;;;;0.20;0.20;;;24.30;99.90;22.70;101254.00;;;;5096537;28;20191;-63
2022/06/22 05:54:46;;;;;;;0.10;0.10;;;23.20;99.90;23.10;101216.00;;;;5095262;28;20240;-63
2022/06/22 05:57:46;;;;;;;0.52;0.52;;;22.60;99.90;22.00;101213.00;;;;5051794;28;20184;-63
2022/06/22 06:00:21;;;;;;;0.75;0.75;;;22.50;99.90;23.20;101230.00;;;;5095067;28;20168;-63
2022/06/22 06:03:05;;;;;;;0.25;0.25;;;22.30;99.90;23.00;101233.00;;;;5095354;28;20222;-63
2022/06/22 06:05:41;;;;;;;0.65;0.65;;;22.20;99.90;24.90;101268.00;;;;5079347;28;20514;-64
2022/06/22 06:08:48;;;;;;;1.25;1.15;;;23.70;99.90;21.80;101219.00;;;;5079520;28;20180;-64
2022/06/22 06:11:45;;;;;;;0.20;0.20;;;22.90;99.90;22.10;101189.00;;;;5095715;28;20225;-63
2022/06/22 06:14:28;;;;;;;0.80;0.80;;;21.90;99.90;21.50;101154.00;;;;5112523;28;20176;-63
2022/06/22 06:17:08;;;;;;;0.75;0.75;;;21.70;99.90;21.50;101178.00;;;;5113897;28;20168;-63
2022/06/22 06:19:42;;;;;;;0.73;0.73;;;21.80;99.90;22.00;101175.00;;;;5094756;28;20178;-63
2022/06/22 06:22:10;;;;;;;0.95;0.95;;;21.90;99.90;23.10;101202.00;;;;5113803;28;20211;-63
2022/06/22 06:27:58;;;;;;;2.10;0.88;;;22.30;99.90;25.40;101223.00;;;;5112917;28;20183;-63
2022/06/22 06:30:43;;;;;;;0.10;0.10;;;23.80;99.90;27.00;101285.00;;;;5113533;28;20210;-64
2022/06/22 06:33:21;;;;;;;0.10;0.10;;;25.40;99.90;27.30;101265.00;;;;5113498;28;20188;-63
2022/06/22 06:35:56;;;;;;;38.13;1.27;;;26.00;99.90;28.60;101294.00;;;;5094667;28;20261;-64
2022/06/22 06:38:38;;;;;;;0.10;0.10;;;27.00;99.90;27.30;101294.00;;;;5078145;28;20574;-63
2022/06/22 06:41:44;;;;;;;0.25;0.25;;;26.60;99.90;24.00;101260.00;;;;5113630;28;20233;-63
2022/06/22 06:44:18;;;;;;;1.52;1.42;;;25.70;99.90;23.10;101242.00;;;;5095243;28;20180;-64
2022/06/22 06:46:53;;;;;;;1.25;1.15;;;24.30;99.90;24.80;101236.00;;;;5096308;28;20233;-64
2022/06/22 06:53:28;;;;;;;9.10;3.38;;;23.70;99.90;23.10;101242.00;;;;5098435;28;20273;-63
2022/06/22 06:56:17;;;;;;;3.03;2.78;;;22.40;99.90;21.50;101230.00;;;;5058706;28;20249;-63
2022/06/22 07:02:25;;;;;;;3.25;2.35;;;21.30;99.90;20.30;101184.00;;;;5117549;28;20573;-64
2022/06/22 07:05:22;;;;;;;0.82;0.82;;;20.70;99.90;20.80;101184.00;;;;5116735;28;20179;-64
2022/06/22 07:08:10;;;;;;;1.65;1.55;;;20.60;99.90;21.60;101203.00;;;;5081250;28;20213;-64
2022/06/22 07:10:51;;;;;;;0.13;0.13;;;21.10;99.90;22.00;101214.00;;;;5099157;28;20651;-64
2022/06/22 07:13:47;;;;;;;1.10;1.10;;;21.60;99.90;22.30;101223.00;;;;5099114;28;20204;-63
2022/06/22 07:16:20;;;;;;;0.60;0.60;;;21.90;99.90;21.90;101230.00;;;;5116598;28;20265;-65
2022/06/22 07:19:00;;;;;;;0.50;0.50;;;21.80;99.90;21.90;101234.00;;;;5099173;28;20180;-64
2022/06/22 07:22:00;;;;;;;0.47;0.47;;;22.10;99.90;22.80;101201.00;;;;5098741;28;20187;-63
2022/06/22 07:24:43;;;;;;;0.95;0.95;;;22.20;99.90;23.80;101247.00;;;;5099021;28;20184;-63
2022/06/22 07:27:44;;;;;;;1.17;1.17;;;23.10;99.90;22.40;101235.00;;;;5115864;28;20229;-64
2022/06/22 07:30:28;;;;;;;1.27;1.25;;;22.60;99.90;23.20;101253.00;;;;5095693;28;20639;-63
2022/06/22 07:33:38;;;;;;;0.20;0.20;;;23.20;99.90;24.40;101260.00;;;;5116917;28;20199;-64
2022/06/22 07:36:21;;;;;;;1.15;0.60;;;23.90;99.90;24.00;101256.00;;;;5095993;28;20222;-63
2022/06/22 07:39:19;;;;;;;1.35;0.20;;;24.00;99.90;24.40;101278.00;;;;5116468;28;20191;-64
2022/06/22 07:42:10;;;;;;;0.75;0.75;;;24.20;99.90;23.80;101226.00;;;;5108986;28;20678;-63
2022/06/22 07:44:36;;;;;;;0.35;0.35;;;23.70;99.90;24.10;101270.00;;;;5115707;28;20237;-64
2022/06/22 07:47:36;;;;;;;0.50;0.50;;;23.90;99.90;25.10;101280.00;;;;5097502;28;20199;-64
2022/06/22 07:50:11;;;;;;;1.23;1.13;;;24.80;99.90;23.70;101274.00;;;;5095587;28;20200;-64
2022/06/22 07:53:39;;;;;;;0.20;0.20;;;24.30;99.90;24.40;101270.00;;;;5097546;28;20206;-63
2022/06/22 07:56:28;;;;;;;0.30;0.30;;;24.20;99.90;23.60;101247.00;;;;5013560;28;20203;-64
2022/06/22 07:59:33;;;;;;;1.55;1.13;;;23.80;99.90;23.80;101276.00;;;;5115497;28;20637;-65
2022/06/22 08:02:48;;;;;;;0.70;0.70;;;23.90;99.90;23.70;101278.00;;;;5098240;28;20175;-65
2022/06/22 08:05:38;;;;;;;0.85;0.77;;;23.90;99.90;24.50;101291.00;;;;5081067;28;20241;-65
2022/06/22 08:08:31;;;;;;;1.80;1.17;;;24.10;99.90;24.00;101274.00;;;;5097557;28;20645;-65
2022/06/22 08:11:49;;;;;;;0.35;0.30;;;24.00;99.90;24.80;101281.00;;;;5089461;28;20200;-65
2022/06/22 08:14:45;;;;;;;0.52;0.52;;;24.70;99.90;26.90;101282.00;;;;5114686;28;20201;-65
2022/06/22 08:17:41;;;;;;;0.85;0.85;;;26.10;99.90;25.90;101295.00;;;;5097617;28;20177;-65
2022/06/22 08:20:39;;;;;;;0.93;0.90;;;26.10;99.90;24.20;101280.00;;;;5077880;28;20198;-65
2022/06/22 08:23:21;;;;;;;0.77;0.77;;;25.30;99.90;24.50;101283.00;;;;5077062;28;20215;-68
2022/06/22 08:26:30;;;;;;;1.02;0.80;;;24.60;99.90;24.60;101281.00;;;;5097161;28;20184;-64
2022/06/22 08:29:27;;;;;;;0.40;0.40;;;24.30;99.90;23.80;101287.00;;;;5097526;28;20184;-64
2022/06/22 08:32:19;;;;;;;0.22;0.22;;;24.40;99.90;25.40;101251.00;;;;5080305;28;20537;-64
2022/06/22 08:34:59;;;;;;;0.85;0.85;;;24.80;99.90;24.80;101290.00;;;;5115854;28;20553;-64
2022/06/22 08:37:49;;;;;;;0.52;0.52;;;24.70;99.90;25.30;101267.00;;;;5080118;28;20184;-64
2022/06/22 08:40:46;;;;;;;3.50;1.27;;;24.70;99.90;25.00;101298.00;;;;5097178;28;20183;-64
2022/06/22 08:43:27;;;;;;;0.77;0.77;;;24.60;99.90;23.50;101255.00;;;;5096282;28;20191;-64
2022/06/22 08:46:38;;;;;;;0.80;0.80;;;23.90;99.90;25.00;101264.00;;;;5115516;28;20225;-64
2022/06/22 08:49:29;;;;;;;0.30;0.30;;;24.60;99.90;25.50;101306.00;;;;5114507;28;20179;-65
2022/06/22 08:52:36;;;;;;;0.85;0.85;;;25.00;99.90;24.60;101300.00;;;;5115193;28;20231;-64
2022/06/22 08:55:26;;;;;;;0.17;0.17;;;24.70;99.90;26.20;101294.00;;;;5090937;28;20418;-64
2022/06/22 08:58:38;;;;;;;0.30;0.30;;;25.30;99.90;27.50;101285.00;;;;5115381;28;20184;-64
2022/06/22 09:01:28;;;;;;;0.40;0.40;;;26.40;99.90;26.90;101317.00;;;;5077522;28;20219;-64
2022/06/22 09:04:32;;;;;;;1.40;1.27;;;26.80;99.90;28.50;101301.00;;;;5115050;28;20211;-65
2022/06/22 09:07:33;;;;;;;1.05;0.73;;;27.40;99.90;27.10;101292.00;;;;5096006;28;20214;-64
2022/06/22 09:10:24;;;;;;;1.77;1.65;;;27.30;99.90;28.40;101287.00;;;;5114887;28;20179;-64
2022/06/22 09:13:24;;;;;;;2.42;1.75;;;27.60;99.90;28.30;101291.00;;;;5096243;28;20303;-65
2022/06/22 09:16:20;;;;;;;0.77;0.75;;;28.20;99.90;26.50;101301.00;;;;5113953;28;20176;-65
2022/06/22 09:19:00;;;;;;;2.42;1.48;;;26.60;99.90;24.30;101315.00;;;;5115039;28;20180;-63
2022/06/22 09:21:50;;;;;;;0.45;0.45;;;25.20;99.90;25.90;101302.00;;;;5114820;28;20207;-63
2022/06/22 09:24:58;;;;;;;0.57;0.47;;;25.60;99.90;27.00;101305.00;;;;5113874;28;20176;-64
2022/06/22 09:28:03;;;;;;;0.13;0.13;;;26.00;99.90;27.70;101312.00;;;;5096503;28;20182;-65
2022/06/22 09:31:26;;;;;;;0.50;0.50;;;26.60;99.90;26.90;101309.00;;;;5094293;28;20192;-64
2022/06/22 09:34:15;;;;;;;0.75;0.75;;;26.00;99.90;28.10;101314.00;;;;5080448;28;20720;-65
2022/06/22 09:37:11;;;;;;;0.65;0.47;;;27.20;99.90;27.40;101294.00;;;;5096106;28;20184;-64
2022/06/22 09:40:03;;;;;;;1.40;1.13;;;27.10;99.90;25.30;101337.00;;;;5038652;28;20195;-64
2022/06/22 09:42:54;;;;;;;0.10;0.10;;;25.70;99.90;26.00;101327.00;;;;5112057;28;20180;-64
2022/06/22 09:45:47;;;;;;;1.67;1.23;;;25.70;99.90;26.10;101337.00;;;;5112493;28;20267;-64
2022/06/22 09:49:05;;;;;;;0.47;0.47;;;25.60;99.90;26.10;101333.00;;;;5112123;28;20180;-64
2022/06/22 09:52:15;;;;;;;0.10;0.10;;;25.60;99.90;27.90;101313.00;;;;5073612;28;20216;-64
2022/06/22 09:58:02;;;;;;;3.65;0.90;;;27.80;99.20;25.60;101302.00;;;;5113569;28;20548;-64
2022/06/22 10:00:59;;;;;;;0.40;0.40;;;26.90;97.70;27.20;101304.00;;;;5112757;28;20184;-64
2022/06/22 10:03:52;;;;;;;0.30;0.22;;;26.60;98.50;28.40;101284.00;;;;5095353;28;20180;-64
2022/06/22 10:06:39;;;;;;;3.10;0.80;;;27.10;97.80;27.40;101290.00;;;;5112957;28;20228;-65
2022/06/22 10:09:47;;;;;;;0.55;0.55;;;27.60;97.80;28.20;101294.00;;;;5113568;28;20229;-64
2022/06/22 10:12:49;;;;;;;0.70;0.60;;;27.50;98.40;28.60;101271.00;;;;5095892;28;20215;-64
2022/06/22 10:16:10;;;;;;;0.30;0.30;;;27.80;97.00;28.60;101275.00;;;;5094868;28;20187;-65
2022/06/22 10:19:09;;;;;;;0.30;0.30;;;28.10;95.80;29.20;101257.00;;;;5095482;28;20183;-63
2022/06/22 10:33:57;;;;;;;0.38;0.38;;;26.90;95.60;28.00;101280.00;;;;5025087;27;3796794;-63
2022/06/22 10:36:46;;;;;;;0.75;0.75;;;27.30;96.40;27.30;101270.00;;;;5093387;28;20197;-70
2022/06/22 10:39:40;;;;;;;0.98;0.85;;;27.60;95.70;27.30;101270.00;;;;5129481;28;20219;-65
2022/06/22 10:49:36;;;;;;;0.38;0.38;;;26.40;95.60;28.00;101275.00;;;;5089524;27;20248;-65
2022/06/22 10:52:24;;;;;;;0.40;0.40;;;27.20;95.80;28.10;101270.00;;;;5131578;27;20183;-64
2022/06/22 10:55:36;;;;;;;0.10;0.10;;;27.70;95.10;31.30;101251.00;;;;5130157;28;20176;-64
2022/06/22 10:58:29;;;;;;;1.45;0.93;;;29.40;95.20;29.70;101253.00;;;;5131298;28;20209;-64
2022/06/22 11:01:35;;;;;;;0.60;0.60;;;29.40;93.50;29.80;101253.00;;;;5129458;28;20175;-65
2022/06/22 11:04:34;;;;;;;0.10;0.10;;;30.10;93.40;28.90;101238.00;;;;5131033;28;20179;-65
2022/06/22 11:07:25;;;;;;;0.28;0.28;;;29.20;94.20;29.20;101258.00;;;;5130384;28;20176;-65
2022/06/22 11:10:20;;;;;;;2.97;1.33;;;29.10;94.50;26.90;101258.00;;;;5131096;27;20244;-64
2022/06/22 11:13:12;;;;;;;0.30;0.30;;;28.00;93.80;28.30;101268.00;;;;5129903;28;20196;-64
2022/06/22 11:16:26;;;;;;;0.88;0.88;;;27.70;93.70;28.20;101259.00;;;;5129528;28;20203;-65
2022/06/22 11:19:37;;;;;;;1.55;1.45;;;28.60;93.10;26.10;101277.00;;;;5129883;28;20236;-64
2022/06/22 11:23:00;;;;;;;0.85;0.85;;;27.20;94.20;26.70;101259.00;;;;5129691;28;20646;-65
2022/06/22 11:32:27;;;;;;;0.85;0.70;;;27.70;93.60;28.00;101249.00;;;;5130398;28;20226;-66
2022/06/22 11:35:35;;;;;;;0.50;0.50;;;28.20;92.80;27.70;101254.00;;;;5108314;28;20658;-67
2022/06/22 11:38:49;;;;;;;2.85;1.23;;;28.20;93.50;27.00;101271.00;;;;5091990;28;20184;-66
2022/06/22 11:42:26;;;;;;;0.20;0.20;;;27.30;94.10;28.80;101265.00;;;;5104543;28;20702;-66
2022/06/22 11:48:14;;;;;;;1.95;0.80;;;29.40;93.40;28.60;101250.00;;;;5115282;28;20183;-66
2022/06/22 11:51:20;;;;;;;2.63;1.20;;;29.50;92.40;27.40;101246.00;;;;5113039;28;20662;-67
2022/06/22 11:54:19;;;;;;;1.35;1.17;;;28.40;92.50;27.10;101257.00;;;;5114374;28;20683;-67
2022/06/22 11:57:15;;;;;;;0.88;0.88;;;27.80;92.70;28.00;101259.00;;;;5112946;28;20180;-67
2022/06/22 12:00:03;;;;;;;1.02;1.02;;;27.70;93.00;27.40;101260.00;;;;5112465;28;20197;-67
2022/06/22 12:03:01;;;;;;;4.47;1.65;;;27.30;93.70;28.20;101262.00;;;;5113649;28;20187;-67
2022/06/22 12:06:00;;;;;;;0.63;0.63;;;27.50;93.80;27.40;101263.00;;;;5108442;28;20196;-67
2022/06/22 12:08:46;;;;;;;0.50;0.50;;;27.00;93.80;27.50;101247.00;;;;5098209;28;20176;-67
2022/06/22 12:11:40;;;;;;;0.40;0.40;;;27.20;93.00;26.80;101217.00;;;;5097209;28;20212;-66
2022/06/22 12:17:18;;;;;;;1.50;1.17;;;26.20;92.80;26.40;101257.00;;;;5116047;28;20646;-67
2022/06/22 12:20:12;;;;;;;0.45;0.45;;;26.30;93.80;26.30;101252.00;;;;5097831;28;20665;-67
2022/06/22 12:23:29;;;;;;;3.47;0.77;;;26.10;94.10;27.00;101248.00;;;;5115750;28;20176;-68
2022/06/22 12:26:38;;;;;;;0.28;0.28;;;26.40;94.00;27.60;101234.00;;;;5114619;28;20168;-67
2022/06/22 12:30:19;;;;;;;0.95;0.95;;;26.50;93.10;27.80;101239.00;;;;5095876;28;20188;-68
2022/06/22 12:33:01;;;;;;;0.80;0.80;;;27.00;92.80;27.30;101231.00;;;;5115207;28;20723;-68
2022/06/22 12:35:59;;;;;;;0.47;0.47;;;26.70;93.10;27.40;101228.00;;;;5114409;28;20631;-68
2022/06/22 12:39:08;;;;;;;0.98;0.98;;;26.50;93.20;26.30;101236.00;;;;5114391;28;20187;-67
2022/06/22 12:42:05;;;;;;;0.50;0.50;;;26.20;93.70;26.80;101206.00;;;;5097624;28;20187;-69
2022/06/22 12:44:49;;;;;;;2.65;2.38;;;26.10;92.60;27.30;101190.00;;;;5099535;28;20658;-68
2022/06/22 12:47:51;;;;;;;0.40;0.40;;;26.40;92.70;26.90;101211.00;;;;5115374;28;20168;-69
2022/06/22 12:50:57;;;;;;;2.50;0.95;;;26.20;92.90;26.40;101223.00;;;;5114614;28;20214;-70
2022/06/22 12:54:01;;;;;;;0.10;0.10;;;25.90;93.50;26.80;101220.00;;;;5115205;28;20187;-70
2022/06/22 12:57:00;;;;;;;0.70;0.68;;;25.90;94.00;26.90;101179.00;;;;5114837;28;20191;-68
2022/06/22 13:00:14;;;;;;;0.50;0.50;;;26.00;92.60;26.80;101197.00;;;;5115338;28;20689;-67
2022/06/22 13:02:44;;;;;;;0.20;0.20;;;26.20;91.80;27.40;101195.00;;;;5095752;28;20176;-67
2022/06/22 13:05:57;;;;;;;1.70;1.55;;;26.40;92.20;26.40;101198.00;;;;5096641;28;20666;-69
2022/06/22 13:08:28;;;;;;;5.25;0.82;;;26.10;91.70;26.60;101187.00;;;;5109860;28;20188;-71
2022/06/22 13:11:11;;;;;;;0.20;0.20;;;26.20;90.80;27.60;101190.00;;;;5080910;28;20214;-72
2022/06/22 13:13:57;;;;;;;0.38;0.38;;;26.40;92.10;27.10;101176.00;;;;5096223;28;20588;-70
2022/06/22 13:16:38;;;;;;;2.97;1.25;;;26.30;90.80;26.90;101183.00;;;;5112461;28;20188;-71